Time;durP1;ratioP1;P1;durP2;ratioP2;P2;SDS_P1;SDS_P2;PMS_P1;PMS_P2;Temp;Humidity;BMP_temperature;BMP_pressure;BME280_temperature;BME280_humidity;BME280_pressure;Samples;Min_cycle;Max_cycle;Signal;HPM_P1;HPM_P2
2021/03/29 00:00:07;;;;;;;88.43;48.20;;;-0.70;16.00;;;;;;4914999;28;21161;-92
2021/03/29 00:02:29;;;;;;;91.30;50.83;;;-0.70;16.90;;;;;;4880119;28;20206;-91
2021/03/29 00:04:52;;;;;;;87.27;49.70;;;-0.60;17.10;;;;;;4899489;28;20940;-91
2021/03/29 00:07:16;;;;;;;85.00;48.40;;;-0.60;15.30;;;;;;4899609;28;20192;-91
2021/03/29 00:09:40;;;;;;;88.77;48.17;;;-0.60;10.80;;;;;;4869101;28;20266;-88
2021/03/29 00:12:04;;;;;;;87.70;47.77;;;-0.60;5.90;;;;;;4888963;28;20226;-90
2021/03/29 00:14:27;;;;;;;86.87;48.27;;;-0.60;1.50;;;;;;4918588;28;20581;-92
2021/03/29 00:16:50;;;;;;;83.17;47.77;;;-0.70;1.00;;;;;;4918393;28;20212;-84
2021/03/29 00:19:12;;;;;;;88.67;49.70;;;-0.60;1.00;;;;;;4883526;28;20647;-92
2021/03/29 00:21:35;;;;;;;89.77;49.50;;;-0.60;1.00;;;;;;4883530;28;20194;-90
2021/03/29 00:23:58;;;;;;;85.93;50.50;;;-0.60;1.00;;;;;;4887880;28;20906;-90
2021/03/29 00:26:21;;;;;;;85.37;48.33;;;-0.60;1.00;;;;;;4852682;28;20219;-90
2021/03/29 00:28:43;;;;;;;90.27;50.13;;;-0.60;1.00;;;;;;4891937;28;20595;-87
2021/03/29 00:31:09;;;;;;;80.50;48.30;;;-0.60;1.00;;;;;;4896393;28;20204;-88
2021/03/29 00:33:32;;;;;;;70.10;42.63;;;-0.60;1.00;;;;;;4875159;28;20729;-87
2021/03/29 00:35:55;;;;;;;69.43;40.73;;;-0.50;1.00;;;;;;4890315;28;20225;-87
2021/03/29 00:38:19;;;;;;;68.87;42.17;;;-0.50;1.00;;;;;;4873793;28;20611;-88
2021/03/29 00:40:48;;;;;;;74.50;44.83;;;-0.50;1.00;;;;;;4897635;28;20622;-90
2021/03/29 00:43:14;;;;;;;72.27;44.37;;;-0.50;1.00;;;;;;4907044;28;20194;-90
2021/03/29 00:45:37;;;;;;;76.43;45.63;;;-0.40;1.00;;;;;;4863530;28;20672;-90
2021/03/29 00:48:01;;;;;;;76.63;44.57;;;-0.50;1.00;;;;;;4863254;28;20197;-89
2021/03/29 00:50:29;;;;;;;74.57;42.73;;;-0.50;1.00;;;;;;4863432;28;21036;-90
2021/03/29 00:52:56;;;;;;;77.53;44.53;;;-0.50;1.00;;;;;;4880236;28;20202;-90
2021/03/29 00:55:20;;;;;;;69.30;40.97;;;-0.50;1.00;;;;;;4892931;28;20683;-86
2021/03/29 00:57:43;;;;;;;60.00;36.90;;;-0.50;1.00;;;;;;4882038;28;20252;-90
2021/03/29 01:00:15;;;;;;;63.07;35.73;;;-0.50;1.00;;;;;;4850543;28;20190;-90
2021/03/29 01:02:37;;;;;;;69.07;38.57;;;-0.50;1.00;;;;;;4863621;28;20217;-89
2021/03/29 01:04:59;;;;;;;64.40;39.70;;;-0.40;1.00;;;;;;4898573;28;20642;-89
2021/03/29 01:07:24;;;;;;;63.00;39.33;;;-0.30;1.00;;;;;;4885973;28;20258;-90
2021/03/29 01:09:47;;;;;;;63.67;37.30;;;-0.40;1.00;;;;;;4910539;28;20192;-90
2021/03/29 01:12:11;;;;;;;66.13;40.77;;;-0.30;1.00;;;;;;4893251;28;20648;-88
2021/03/29 01:14:37;;;;;;;69.40;42.57;;;-0.30;1.00;;;;;;4899732;28;20242;-88
2021/03/29 01:17:04;;;;;;;74.10;43.33;;;-0.30;1.00;;;;;;4898287;28;20209;-89
2021/03/29 01:19:44;;;;;;;74.97;42.07;;;-0.20;3.90;;;;;;4861212;28;20201;-90
2021/03/29 01:22:08;;;;;;;66.20;40.57;;;-0.10;7.00;;;;;;4875697;28;20633;-89
2021/03/29 01:24:39;;;;;;;62.87;40.43;;;0.10;8.50;;;;;;4843579;28;20242;-81
2021/03/29 01:27:03;;;;;;;66.07;40.50;;;0.10;7.40;;;;;;4860176;28;20671;-90
2021/03/29 01:29:30;;;;;;;63.33;40.57;;;0.10;5.70;;;;;;4879880;28;20655;-90
2021/03/29 01:31:53;;;;;;;59.83;38.30;;;0.20;5.30;;;;;;4863089;28;20602;-90
2021/03/29 01:34:17;;;;;;;64.37;40.93;;;0.30;6.20;;;;;;4879107;28;20615;-85
2021/03/29 01:36:40;;;;;;;61.93;39.50;;;0.50;7.40;;;;;;4845694;28;20244;-88
2021/03/29 01:39:05;;;;;;;61.67;38.33;;;0.60;7.10;;;;;;4880044;28;20200;-90
2021/03/29 01:41:27;;;;;;;59.13;37.60;;;0.60;6.60;;;;;;4862485;28;20202;-90
2021/03/29 01:43:52;;;;;;;51.77;34.83;;;0.70;5.20;;;;;;4884142;28;20200;-90
2021/03/29 01:46:15;;;;;;;50.30;33.80;;;0.80;2.70;;;;;;4881738;28;20197;-89
2021/03/29 01:48:38;;;;;;;51.03;34.73;;;0.90;1.00;;;;;;4898633;28;20751;-90
2021/03/29 01:51:00;;;;;;;58.03;39.00;;;0.90;1.00;;;;;;4865449;28;20198;-90
2021/03/29 01:53:24;;;;;;;62.23;40.00;;;1.00;1.00;;;;;;4888114;28;20666;-91
2021/03/29 01:55:46;;;;;;;57.80;38.70;;;1.00;1.00;;;;;;4871582;28;20213;-90
2021/03/29 01:58:09;;;;;;;55.87;39.07;;;1.10;1.00;;;;;;4877038;28;20216;-91
2021/03/29 02:00:37;;;;;;;54.27;35.67;;;1.10;1.00;;;;;;4893930;28;20270;-90
2021/03/29 02:03:00;;;;;;;59.10;37.53;;;1.10;1.00;;;;;;4867484;28;20206;-89
2021/03/29 02:05:23;;;;;;;54.73;37.40;;;1.10;1.00;;;;;;4879710;28;20209;-92
2021/03/29 02:07:46;;;;;;;53.93;37.53;;;1.10;1.00;;;;;;4862651;28;20198;-90
2021/03/29 02:10:11;;;;;;;59.10;36.63;;;1.10;1.00;;;;;;4862821;28;20194;-89
2021/03/29 02:12:33;;;;;;;55.53;36.53;;;1.00;1.00;;;;;;4862643;28;20224;-90
2021/03/29 02:14:56;;;;;;;58.10;35.17;;;1.00;1.00;;;;;;4862238;28;20227;-91
2021/03/29 02:17:20;;;;;;;53.50;32.90;;;0.90;1.00;;;;;;4869854;28;20664;-84
2021/03/29 02:19:44;;;;;;;50.00;33.77;;;0.90;1.00;;;;;;4869631;28;20198;-91
2021/03/29 02:22:06;;;;;;;49.40;33.60;;;0.90;1.00;;;;;;4896733;28;20643;-92
2021/03/29 02:24:29;;;;;;;47.33;32.10;;;0.90;1.00;;;;;;4897820;28;20185;-88
2021/03/29 02:26:53;;;;;;;50.27;33.73;;;0.90;1.00;;;;;;4866372;28;20288;-90
2021/03/29 02:29:19;;;;;;;47.67;33.33;;;0.90;1.00;;;;;;4883127;28;20236;-87
2021/03/29 02:31:41;;;;;;;49.60;33.67;;;1.00;1.00;;;;;;4890739;28;20185;-91
2021/03/29 02:34:06;;;;;;;50.10;33.43;;;1.00;1.00;;;;;;4876365;28;20286;-88
2021/03/29 02:36:28;;;;;;;48.73;34.23;;;1.10;1.00;;;;;;4901934;28;20286;-92
2021/03/29 02:38:50;;;;;;;48.27;33.57;;;1.10;1.00;;;;;;4833729;28;20198;-91
2021/03/29 02:41:13;;;;;;;53.57;35.47;;;1.10;1.00;;;;;;4884533;28;20201;-90
2021/03/29 02:43:36;;;;;;;47.13;33.70;;;1.20;1.00;;;;;;4886296;28;20197;-92
2021/03/29 02:46:03;;;;;;;48.87;33.63;;;1.20;1.00;;;;;;4857359;28;20271;-88
2021/03/29 02:48:27;;;;;;;52.63;34.90;;;1.30;1.00;;;;;;4901798;28;20204;-91
2021/03/29 02:50:53;;;;;;;48.30;33.47;;;1.40;1.00;;;;;;4894928;28;20303;-88
2021/03/29 02:53:18;;;;;;;49.93;33.87;;;1.40;1.00;;;;;;4886121;28;20188;-87
2021/03/29 02:55:41;;;;;;;46.10;32.40;;;1.40;1.00;;;;;;4902058;28;20688;-91
2021/03/29 02:58:04;;;;;;;48.70;33.27;;;1.40;99.90;;;;;;4887550;28;20225;-91
2021/03/29 03:00:28;;;;;;;46.73;33.90;;;1.50;99.90;;;;;;4881278;28;20205;-84
2021/03/29 03:02:52;;;;;;;46.67;33.80;;;1.50;99.90;;;;;;4865581;28;20221;-90
2021/03/29 03:05:15;;;;;;;50.53;33.67;;;1.50;99.90;;;;;;4910937;28;20595;-89
2021/03/29 03:07:39;;;;;;;46.40;32.93;;;1.60;99.90;;;;;;4865636;28;20198;-90
2021/03/29 03:10:03;;;;;;;43.37;32.33;;;1.60;99.90;;;;;;4857986;28;20194;-87
2021/03/29 03:12:26;;;;;;;49.47;34.50;;;1.60;99.90;;;;;;4877717;28;20568;-92
2021/03/29 03:14:48;;;;;;;49.90;34.50;;;1.60;99.90;;;;;;4881882;28;20190;-91
2021/03/29 03:17:10;;;;;;;53.33;34.90;;;1.70;99.90;;;;;;4896228;28;20228;-84
2021/03/29 03:19:32;;;;;;;54.10;35.27;;;1.70;99.90;;;;;;4881372;28;20316;-90
2021/03/29 03:21:54;;;;;;;45.13;30.70;;;1.70;99.90;;;;;;4899700;28;20553;-88
2021/03/29 03:24:17;;;;;;;43.87;28.87;;;1.80;99.90;;;;;;4889042;28;20199;-90
2021/03/29 03:26:39;;;;;;;44.27;29.97;;;1.80;99.90;;;;;;4870783;28;20198;-91
2021/03/29 03:29:03;;;;;;;45.00;30.37;;;2.00;99.90;;;;;;4867442;28;20206;-93
2021/03/29 03:31:25;;;;;;;45.80;29.97;;;1.80;95.70;;;;;;4865491;28;20193;-91
2021/03/29 03:33:47;;;;;;;39.03;26.80;;;1.90;1.00;;;;;;4884121;28;20197;-89
2021/03/29 03:36:10;;;;;;;41.03;29.00;;;2.70;1.00;;;;;;4892606;28;20278;-82
2021/03/29 03:38:35;;;;;;;40.10;28.20;;;1.90;1.00;;;;;;4882533;28;20219;-91
2021/03/29 03:41:00;;;;;;;39.70;27.60;;;1.90;1.00;;;;;;4891228;28;20286;-91
2021/03/29 03:43:25;;;;;;;41.60;29.50;;;2.00;1.00;;;;;;4863524;28;20194;-87
2021/03/29 03:45:50;;;;;;;41.83;28.53;;;2.20;1.00;;;;;;4873247;28;20235;-93
2021/03/29 03:48:13;;;;;;;43.50;29.00;;;2.10;1.00;;;;;;4882937;28;20205;-89
2021/03/29 03:50:37;;;;;;;42.27;27.80;;;2.20;1.00;;;;;;4882740;28;20198;-91
2021/03/29 03:53:01;;;;;;;39.53;27.73;;;2.20;1.00;;;;;;4867016;28;20326;-87
2021/03/29 03:55:24;;;;;;;39.03;27.33;;;2.20;1.00;;;;;;4897678;28;20204;-92
2021/03/29 03:57:47;;;;;;;40.47;28.10;;;2.30;1.00;;;;;;4869189;28;20237;-92
2021/03/29 04:00:12;;;;;;;47.57;31.33;;;2.20;99.90;;;;;;4899928;28;20192;-90
2021/03/29 04:02:35;;;;;;;49.57;31.43;;;2.30;99.90;;;;;;4861736;28;20284;-89
2021/03/29 04:04:57;;;;;;;41.30;28.40;;;2.30;1.00;;;;;;4856987;28;20201;-86
2021/03/29 04:07:20;;;;;;;45.83;28.83;;;2.40;1.00;;;;;;4920193;28;20205;-86
2021/03/29 04:09:52;;;;;;;42.53;29.07;;;2.40;1.00;;;;;;4902050;28;20242;-87
2021/03/29 04:12:15;;;;;;;40.93;27.43;;;2.50;1.00;;;;;;4871645;28;20204;-90
2021/03/29 04:14:39;;;;;;;39.23;29.53;;;2.50;1.00;;;;;;4879082;28;20255;-94
2021/03/29 04:17:01;;;;;;;43.03;29.93;;;2.50;1.00;;;;;;4866053;28;20217;-89
2021/03/29 04:19:23;;;;;;;43.43;28.60;;;2.60;1.00;;;;;;4919504;28;20242;-89
2021/03/29 04:21:46;;;;;;;39.63;27.90;;;2.60;1.00;;;;;;4919367;28;20245;-90
2021/03/29 04:24:09;;;;;;;40.10;26.97;;;2.60;1.00;;;;;;4889293;28;20193;-93
2021/03/29 04:26:31;;;;;;;41.67;28.63;;;2.70;1.00;;;;;;4918730;28;20192;-92
2021/03/29 04:28:53;;;;;;;35.53;26.73;;;2.70;99.90;;;;;;4900991;28;20739;-87
2021/03/29 04:31:15;;;;;;;41.37;28.53;;;2.70;99.90;;;;;;4882833;28;20189;-88
2021/03/29 04:33:38;;;;;;;41.63;28.67;;;2.80;99.90;;;;;;4899536;28;20242;-92
2021/03/29 04:36:00;;;;;;;40.73;27.90;;;2.80;99.90;;;;;;4894150;28;20686;-92
2021/03/29 04:38:22;;;;;;;39.13;27.93;;;2.90;55.10;;;;;;4911685;28;20188;-89
2021/03/29 04:40:44;;;;;;;38.90;27.27;;;2.90;1.00;;;;;;4882887;28;20214;-92
2021/03/29 04:43:06;;;;;;;41.87;30.03;;;2.90;1.00;;;;;;4881214;28;20259;-90
2021/03/29 04:45:28;;;;;;;47.10;34.87;;;2.90;1.00;;;;;;4881520;28;20192;-88
2021/03/29 04:47:52;;;;;;;44.20;32.80;;;3.00;1.00;;;;;;4900371;28;20196;-89
2021/03/29 04:50:16;;;;;;;39.23;30.77;;;3.00;99.90;;;;;;4890564;28;20246;-87
2021/03/29 04:52:38;;;;;;;40.20;29.53;;;2.90;99.90;;;;;;4845995;28;20212;-80
2021/03/29 04:55:00;;;;;;;49.13;36.70;;;3.10;99.90;;;;;;4895250;28;20192;-87
2021/03/29 04:57:22;;;;;;;51.50;39.83;;;3.20;1.00;;;;;;4880601;28;20259;-90
2021/03/29 04:59:44;;;;;;;100.43;76.70;;;3.20;99.90;;;;;;4881558;28;20236;-86
2021/03/29 05:02:06;;;;;;;44.57;34.93;;;3.40;1.00;;;;;;4879627;28;20181;-90
2021/03/29 05:04:29;;;;;;;36.10;27.27;;;3.20;99.90;;;;;;4882751;28;20189;-92
2021/03/29 05:06:51;;;;;;;33.80;25.63;;;3.40;99.90;;;;;;4900356;28;20205;-89
2021/03/29 05:09:14;;;;;;;33.17;24.70;;;3.40;61.50;;;;;;4871783;28;20204;-91
2021/03/29 05:11:46;;;;;;;33.80;26.40;;;3.50;13.60;;;;;;4890607;28;20197;-91
2021/03/29 05:14:08;;;;;;;33.43;25.73;;;3.50;1.00;;;;;;4918789;28;20177;-86
2021/03/29 05:16:30;;;;;;;34.50;26.50;;;3.60;1.00;;;;;;4877724;28;20245;-90
2021/03/29 05:18:52;;;;;;;32.97;25.17;;;3.70;1.00;;;;;;4863299;28;20193;-83
2021/03/29 05:21:16;;;;;;;35.93;26.87;;;3.80;99.90;;;;;;4864645;28;20198;-83
2021/03/29 05:23:38;;;;;;;33.40;25.50;;;3.90;57.30;;;;;;4881605;28;20313;-84
2021/03/29 05:26:00;;;;;;;34.23;26.83;;;4.00;1.00;;;;;;4908019;28;20188;-93
2021/03/29 05:28:22;;;;;;;37.50;28.47;;;4.00;1.30;;;;;;4869860;28;20638;-80
2021/03/29 05:30:44;;;;;;;34.30;26.47;;;4.10;99.90;;;;;;4911439;28;20300;-86
2021/03/29 05:33:06;;;;;;;33.63;26.77;;;4.30;1.00;;;;;;4883310;28;20256;-92
2021/03/29 05:35:28;;;;;;;33.07;26.03;;;4.40;1.00;;;;;;4902141;28;20238;-94
2021/03/29 05:37:51;;;;;;;36.67;26.70;;;4.50;99.90;;;;;;4880862;28;20216;-85
2021/03/29 05:40:17;;;;;;;31.90;26.23;;;4.50;99.90;;;;;;4901964;28;20234;-84
2021/03/29 05:42:39;;;;;;;33.70;26.47;;;4.60;99.90;;;;;;4862687;28;20527;-82
2021/03/29 05:45:04;;;;;;;30.03;22.30;;;4.70;24.70;;;;;;4917427;28;20246;-87
2021/03/29 05:47:27;;;;;;;28.53;23.07;;;4.70;30.30;;;;;;4915742;28;20699;-89
2021/03/29 05:49:49;;;;;;;26.83;22.53;;;4.80;1.00;;;;;;4898788;28;20192;-89
2021/03/29 05:52:11;;;;;;;27.43;22.80;;;4.90;1.00;;;;;;4898243;28;20232;-81
2021/03/29 05:54:34;;;;;;;28.93;23.03;;;4.90;99.90;;;;;;4902607;28;20188;-85
2021/03/29 05:56:57;;;;;;;27.23;22.63;;;5.00;99.90;;;;;;4917716;28;20265;-86
2021/03/29 05:59:21;;;;;;;29.23;22.20;;;5.20;99.90;;;;;;4917207;28;20207;-84
2021/03/29 06:01:45;;;;;;;26.90;21.50;;;5.30;99.90;;;;;;4914443;28;20180;-85
2021/03/29 06:04:07;;;;;;;26.63;22.10;;;5.40;1.00;;;;;;4895412;28;20193;-87
2021/03/29 06:06:31;;;;;;;25.27;20.57;;;5.50;1.00;;;;;;4864102;28;20201;-86
2021/03/29 06:08:53;;;;;;;23.27;18.90;;;5.60;1.00;;;;;;4902566;28;20527;-94
2021/03/29 06:11:24;;;;;;;25.00;20.10;;;5.70;1.00;;;;;;4858332;28;20190;-85
2021/03/29 06:13:47;;;;;;;23.80;18.97;;;5.80;99.90;;;;;;4882602;28;20246;-90
2021/03/29 06:16:11;;;;;;;23.20;19.00;;;5.90;99.90;;;;;;4882325;28;20627;-90
2021/03/29 06:18:33;;;;;;;25.10;20.23;;;6.10;99.90;;;;;;4899764;28;20258;-92
2021/03/29 06:21:10;;;;;;;24.87;21.27;;;6.20;99.90;;;;;;4867892;28;20214;-92
2021/03/29 06:23:33;;;;;;;24.67;20.73;;;6.40;24.80;;;;;;4881391;28;20229;-88
2021/03/29 06:26:18;;;;;;;21.73;19.40;;;6.50;1.00;;;;;;4863430;28;20304;-92
2021/03/29 06:28:41;;;;;;;24.67;18.83;;;6.60;1.00;;;;;;4875018;28;20181;-91
2021/03/29 06:31:18;;;;;;;21.70;18.63;;;6.70;1.00;;;;;;4881796;28;20197;-92
2021/03/29 06:33:45;;;;;;;23.50;18.33;;;6.70;1.00;;;;;;4898617;28;20230;-89
2021/03/29 06:36:08;;;;;;;20.50;16.40;;;6.70;1.00;;;;;;4883501;28;20198;-92
2021/03/29 06:38:33;;;;;;;22.50;17.93;;;6.80;1.00;;;;;;4865970;28;20225;-85
2021/03/29 06:40:57;;;;;;;21.10;17.17;;;6.80;1.00;;;;;;4908307;28;20239;-86
2021/03/29 06:43:25;;;;;;;20.27;17.50;;;6.80;1.00;;;;;;4907274;28;20185;-89
2021/03/29 06:45:48;;;;;;;20.30;17.50;;;6.90;1.00;;;;;;4863396;28;20197;-89
2021/03/29 06:48:22;;;;;;;19.07;16.60;;;7.00;1.00;;;;;;4897776;28;20193;-85
2021/03/29 06:50:44;;;;;;;22.60;18.77;;;7.20;1.00;;;;;;4850271;28;20741;-84
2021/03/29 06:53:07;;;;;;;17.70;15.17;;;7.10;1.00;;;;;;4859553;28;20202;-89
2021/03/29 06:55:29;;;;;;;19.57;15.37;;;7.30;99.90;;;;;;4877520;28;20189;-89
2021/03/29 06:58:02;;;;;;;18.80;15.07;;;7.40;99.90;;;;;;4896895;28;20224;-84
2021/03/29 07:00:28;;;;;;;15.23;13.63;;;7.50;99.90;;;;;;4826261;28;20269;-81
2021/03/29 07:02:52;;;;;;;16.83;13.87;;;7.70;99.90;;;;;;4872118;28;20197;-80
2021/03/29 07:05:15;;;;;;;14.23;12.70;;;7.90;99.90;;;;;;4895148;28;20231;-78
2021/03/29 07:07:38;;;;;;;13.20;11.53;;;8.20;99.90;;;;;;4894790;28;20192;-86
2021/03/29 07:10:02;;;;;;;11.73;10.50;;;8.40;99.90;;;;;;4864266;28;20201;-90
2021/03/29 07:12:26;;;;;;;11.40;10.30;;;8.50;99.60;;;;;;4878875;28;20197;-85
2021/03/29 07:14:51;;;;;;;12.60;10.30;;;8.70;38.20;;;;;;4883709;28;20209;-82
2021/03/29 07:17:15;;;;;;;14.20;10.60;;;8.70;1.00;;;;;;4880400;28;20225;-83
2021/03/29 07:19:39;;;;;;;10.30;9.27;;;8.80;1.00;;;;;;4880861;28;20202;-80
2021/03/29 07:22:02;;;;;;;10.17;8.77;;;8.80;1.00;;;;;;4863689;28;20722;-81
2021/03/29 07:24:28;;;;;;;8.93;8.00;;;8.80;1.00;;;;;;4863399;28;20193;-78
2021/03/29 07:26:56;;;;;;;9.63;8.23;;;8.80;1.00;;;;;;4908979;28;20598;-82
2021/03/29 07:29:20;;;;;;;8.57;7.63;;;8.90;1.00;;;;;;4879694;28;20606;-83
2021/03/29 07:31:43;;;;;;;9.67;8.27;;;9.10;1.00;;;;;;4875591;28;20643;-83
2021/03/29 07:34:06;;;;;;;9.07;7.80;;;9.20;1.00;;;;;;4865961;28;20629;-76
2021/03/29 07:36:56;;;;;;;9.50;7.60;;;9.30;1.00;;;;;;4880187;28;20193;-86
2021/03/29 07:39:35;;;;;;;9.17;7.70;;;9.30;1.00;;;;;;4853239;28;20278;-81
2021/03/29 07:42:32;;;;;;;8.33;7.33;;;9.40;1.00;;;;;;4882418;28;20201;-84
2021/03/29 07:44:57;;;;;;;9.53;7.03;;;9.40;1.00;;;;;;4842915;28;20218;-80
2021/03/29 07:47:40;;;;;;;7.13;6.43;;;9.40;1.00;;;;;;4879719;28;20223;-81
2021/03/29 07:50:02;;;;;;;6.90;6.20;;;9.50;1.00;;;;;;4881148;28;20227;-82
2021/03/29 07:52:41;;;;;;;8.30;6.43;;;9.60;1.00;;;;;;4886486;28;20680;-80
2021/03/29 07:55:15;;;;;;;9.10;7.03;;;9.80;1.00;;;;;;4888453;28;20269;-79
2021/03/29 07:58:04;;;;;;;8.47;7.50;;;9.90;1.00;;;;;;4855020;28;20250;-81
2021/03/29 08:00:49;;;;;;;8.30;7.23;;;10.20;1.00;;;;;;4876293;28;20636;-77
2021/03/29 08:03:46;;;;;;;9.40;8.43;;;10.30;1.00;;;;;;4877715;28;20201;-85
2021/03/29 08:06:44;;;;;;;8.83;7.93;;;10.40;1.00;;;;;;4885995;28;20213;-76
2021/03/29 08:09:13;;;;;;;8.77;7.80;;;10.40;1.00;;;;;;4860424;28;20280;-84
2021/03/29 08:12:03;;;;;;;9.10;8.20;;;10.50;1.00;;;;;;4885610;28;20189;-84
2021/03/29 08:14:42;;;;;;;9.27;8.23;;;10.40;1.00;;;;;;4882141;28;20196;-79
2021/03/29 08:17:45;;;;;;;9.37;7.73;;;10.50;1.00;;;;;;4872614;28;20213;-82
2021/03/29 08:20:14;;;;;;;13.87;9.00;;;10.60;1.00;;;;;;4867281;28;20186;-85
2021/03/29 08:22:36;;;;;;;9.10;7.20;;;10.80;1.00;;;;;;4916911;28;20693;-85
2021/03/29 08:24:59;;;;;;;8.13;6.57;;;10.90;1.00;;;;;;4890271;28;20239;-79
2021/03/29 08:27:31;;;;;;;7.73;7.00;;;11.00;1.00;;;;;;4879601;28;20237;-82
2021/03/29 08:29:54;;;;;;;7.43;6.70;;;11.20;1.00;;;;;;4897200;28;20169;-83
2021/03/29 08:32:18;;;;;;;7.53;6.43;;;11.30;1.00;;;;;;4861515;28;20895;-79
2021/03/29 08:34:54;;;;;;;7.23;5.77;;;11.50;1.00;;;;;;4877926;28;20217;-79
2021/03/29 08:37:18;;;;;;;5.87;5.27;;;11.70;1.00;;;;;;4869621;28;20216;-79
2021/03/29 08:39:42;;;;;;;3.70;3.40;;;11.90;1.00;;;;;;4903164;28;20245;-88
2021/03/29 08:42:07;;;;;;;2.80;1.73;;;12.10;1.00;;;;;;4875557;28;20206;-79
2021/03/29 08:44:30;;;;;;;1.70;1.60;;;12.30;1.00;;;;;;4877102;28;20226;-80
2021/03/29 08:46:54;;;;;;;2.50;1.17;;;12.50;1.00;;;;;;4879907;28;20201;-87
2021/03/29 08:49:16;;;;;;;1.33;1.23;;;12.90;1.00;;;;;;4868389;28;20267;-76
2021/03/29 08:51:38;;;;;;;1.33;1.23;;;12.80;1.00;;;;;;4910029;28;20188;-77
2021/03/29 08:54:08;;;;;;;1.33;1.17;;;13.10;1.00;;;;;;4885177;28;20291;-78
2021/03/29 08:56:37;;;;;;;1.30;1.20;;;13.10;1.00;;;;;;4862419;28;20198;-79
2021/03/29 08:59:00;;;;;;;1.13;1.07;;;13.20;1.00;;;;;;4897266;28;20559;-74
2021/03/29 09:01:28;;;;;;;0.90;0.90;;;13.30;1.00;;;;;;4898817;28;20246;-74
2021/03/29 09:04:00;;;;;;;1.07;1.07;;;13.20;1.00;;;;;;4892380;28;20280;-79
2021/03/29 09:06:22;;;;;;;1.00;0.90;;;13.30;1.00;;;;;;4863843;28;20190;-78
2021/03/29 09:08:44;;;;;;;1.50;1.23;;;13.30;1.00;;;;;;4896265;28;20189;-74
2021/03/29 09:11:06;;;;;;;1.23;1.13;;;13.30;1.00;;;;;;4879369;28;20193;-77
2021/03/29 09:13:29;;;;;;;1.07;1.07;;;13.40;1.00;;;;;;4904660;28;20650;-87
2021/03/29 09:15:52;;;;;;;0.83;0.83;;;13.50;1.00;;;;;;4848765;28;20216;-76
2021/03/29 09:18:16;;;;;;;1.30;1.00;;;13.80;1.00;;;;;;4875096;28;20225;-85
2021/03/29 09:20:40;;;;;;;1.13;1.03;;;13.90;1.00;;;;;;4860479;28;20256;-89
2021/03/29 09:23:03;;;;;;;0.77;0.77;;;14.50;1.00;;;;;;4859260;28;20256;-84
2021/03/29 09:25:29;;;;;;;0.63;0.63;;;15.00;1.00;;;;;;4853320;28;20201;-82
2021/03/29 09:28:21;;;;;;;0.80;0.80;;;15.60;1.00;;;;;;4852191;28;20270;-75
2021/03/29 09:30:43;;;;;;;0.93;0.90;;;16.30;1.00;;;;;;4845464;28;20210;-78
2021/03/29 09:33:07;;;;;;;0.50;0.50;;;16.80;1.00;;;;;;4895657;28;20263;-83
2021/03/29 09:35:29;;;;;;;0.50;0.50;;;17.30;1.00;;;;;;4879341;28;20188;-78
2021/03/29 09:37:51;;;;;;;0.53;0.53;;;17.80;1.00;;;;;;4861202;28;20244;-75
2021/03/29 09:40:14;;;;;;;0.40;0.40;;;18.10;1.00;;;;;;4877423;28;20695;-81
2021/03/29 09:42:44;;;;;;;0.37;0.37;;;18.40;1.00;;;;;;4864856;28;20622;-77
2021/03/29 09:45:08;;;;;;;0.40;0.40;;;18.60;1.00;;;;;;4887471;28;20219;-83
2021/03/29 09:47:30;;;;;;;0.30;0.30;;;18.80;1.00;;;;;;4915258;28;20180;-83
2021/03/29 09:49:53;;;;;;;0.20;0.20;;;18.80;1.00;;;;;;4891240;28;20187;-78
2021/03/29 09:52:16;;;;;;;0.30;0.30;;;19.10;1.00;;;;;;4859631;28;20395;-75
2021/03/29 09:54:44;;;;;;;0.40;0.40;;;19.20;1.00;;;;;;4878781;28;20251;-85
2021/03/29 09:57:15;;;;;;;0.30;0.30;;;19.50;1.00;;;;;;4890761;28;20235;-76
2021/03/29 09:59:40;;;;;;;0.20;0.20;;;19.70;1.00;;;;;;4875631;28;20627;-76
2021/03/29 10:02:10;;;;;;;0.30;0.30;;;19.80;1.00;;;;;;4894689;28;20216;-78
2021/03/29 10:04:32;;;;;;;0.30;0.30;;;19.80;1.00;;;;;;4880674;28;20190;-76
2021/03/29 10:06:56;;;;;;;0.37;0.37;;;19.90;1.00;;;;;;4895872;28;20186;-85
2021/03/29 10:09:30;;;;;;;0.30;0.30;;;20.20;1.00;;;;;;4884542;28;20182;-83
2021/03/29 10:11:52;;;;;;;0.20;0.20;;;20.80;1.00;;;;;;4861295;28;20706;-77
2021/03/29 10:14:15;;;;;;;0.30;0.30;;;21.10;99.90;;;;;;4880142;28;20653;-80
2021/03/29 10:16:45;;;;;;;0.20;0.20;;;21.40;99.90;;;;;;4862550;28;20191;-84
2021/03/29 10:19:08;;;;;;;0.20;0.20;;;21.70;1.00;;;;;;4894856;28;20202;-76
2021/03/29 10:21:32;;;;;;;0.20;0.20;;;22.00;99.90;;;;;;4877615;28;20297;-79
2021/03/29 10:24:11;;;;;;;0.20;0.20;;;22.10;1.00;;;;;;4911569;28;20195;-76
2021/03/29 10:26:37;;;;;;;0.20;0.20;;;22.20;1.00;;;;;;4861865;28;20194;-80
2021/03/29 10:29:00;;;;;;;0.20;0.20;;;22.20;1.00;;;;;;4877000;28;20237;-76
2021/03/29 10:31:23;;;;;;;0.20;0.20;;;22.30;1.00;;;;;;4861482;28;20204;-78
2021/03/29 10:33:45;;;;;;;0.20;0.20;;;21.90;1.00;;;;;;4886998;28;20195;-81
2021/03/29 10:36:13;;;;;;;0.20;0.20;;;21.50;99.90;;;;;;4895690;28;20203;-80
2021/03/29 10:38:35;;;;;;;0.20;0.20;;;21.00;99.90;;;;;;4875486;28;20219;-87
2021/03/29 10:40:58;;;;;;;0.20;0.20;;;20.50;99.90;;;;;;4898156;28;20185;-79
2021/03/29 10:43:20;;;;;;;0.20;0.20;;;20.30;99.90;;;;;;4891281;28;20196;-79
2021/03/29 10:45:42;;;;;;;0.20;0.20;;;20.00;99.90;;;;;;4899616;28;20275;-75
2021/03/29 10:48:05;;;;;;;0.20;0.20;;;19.80;99.90;;;;;;4897943;28;20244;-89
2021/03/29 10:50:27;;;;;;;0.20;0.20;;;19.60;99.90;;;;;;4883261;28;20241;-89
2021/03/29 10:52:49;;;;;;;0.20;0.20;;;19.40;99.90;;;;;;4900204;28;20196;-77
2021/03/29 10:55:13;;;;;;;0.30;0.30;;;19.30;99.90;;;;;;4882817;28;20771;-77
2021/03/29 10:57:36;;;;;;;0.30;0.30;;;19.20;99.90;;;;;;4881052;28;20225;-85
2021/03/29 10:59:59;;;;;;;0.20;0.20;;;19.10;99.90;;;;;;4891456;28;20188;-81
2021/03/29 11:02:21;;;;;;;0.20;0.20;;;19.00;99.90;;;;;;4842631;28;20199;-77
2021/03/29 11:04:43;;;;;;;0.40;0.40;;;18.70;99.90;;;;;;4861374;28;20194;-78
2021/03/29 11:07:05;;;;;;;0.30;0.30;;;18.60;99.90;;;;;;4880634;28;20279;-86
2021/03/29 11:09:27;;;;;;;0.40;0.40;;;18.50;1.00;;;;;;4863810;28;20229;-86
2021/03/29 11:11:50;;;;;;;0.30;0.30;;;18.40;99.90;;;;;;4898944;28;20238;-80
2021/03/29 11:14:13;;;;;;;0.30;0.30;;;18.40;99.90;;;;;;4863310;28;20501;-80
2021/03/29 11:16:35;;;;;;;0.30;0.30;;;18.50;99.90;;;;;;4881664;28;20209;-85
2021/03/29 11:18:58;;;;;;;0.30;0.30;;;18.70;99.90;;;;;;4861496;28;20226;-75
2021/03/29 11:21:21;;;;;;;0.20;0.20;;;18.90;99.90;;;;;;4879227;28;20183;-84
2021/03/29 11:23:43;;;;;;;0.30;0.30;;;19.10;99.90;;;;;;4874658;28;20233;-78
2021/03/29 11:26:05;;;;;;;0.30;0.30;;;19.20;99.90;;;;;;4896170;28;20263;-78
2021/03/29 11:28:28;;;;;;;0.30;0.30;;;19.40;99.90;;;;;;4890052;28;20283;-75
2021/03/29 11:30:52;;;;;;;0.20;0.20;;;19.50;99.90;;;;;;4908268;28;20604;-76
2021/03/29 11:33:14;;;;;;;0.20;0.20;;;19.90;1.00;;;;;;4851823;28;20244;-77
2021/03/29 11:35:36;;;;;;;0.30;0.30;;;20.30;99.90;;;;;;4901476;28;20189;-77
2021/03/29 11:37:58;;;;;;;0.20;0.20;;;20.40;99.90;;;;;;4914032;28;20225;-91
2021/03/29 11:40:20;;;;;;;0.20;0.20;;;20.60;99.90;;;;;;4884284;28;20634;-86
2021/03/29 11:42:43;;;;;;;0.30;0.30;;;20.60;99.90;;;;;;4846037;28;20267;-86
2021/03/29 11:45:07;;;;;;;0.20;0.20;;;20.40;99.90;;;;;;4859307;28;20294;-82
2021/03/29 11:47:30;;;;;;;0.20;0.20;;;20.10;99.90;;;;;;4898263;28;20195;-83
2021/03/29 11:49:52;;;;;;;0.30;0.30;;;19.60;99.90;;;;;;4889491;28;20195;-83
2021/03/29 11:52:14;;;;;;;0.20;0.20;;;19.30;99.90;;;;;;4864139;28;20189;-83
2021/03/29 11:54:36;;;;;;;0.23;0.23;;;19.10;99.90;;;;;;4882098;28;20578;-77
2021/03/29 11:56:58;;;;;;;0.30;0.30;;;18.70;99.90;;;;;;4898721;28;20231;-76
2021/03/29 11:59:22;;;;;;;0.30;0.30;;;18.30;99.90;;;;;;4879159;28;20279;-83
2021/03/29 12:01:47;;;;;;;0.30;0.30;;;18.10;99.90;;;;;;4881169;28;20594;-79
2021/03/29 12:04:14;;;;;;;0.20;0.20;;;17.80;99.90;;;;;;4882548;28;20198;-76
2021/03/29 12:06:42;;;;;;;0.30;0.30;;;17.60;99.90;;;;;;4864749;28;20840;-85
2021/03/29 12:09:12;;;;;;;0.20;0.20;;;17.50;99.90;;;;;;4847436;28;20271;-79
2021/03/29 12:11:53;;;;;;;0.23;0.23;;;17.50;99.90;;;;;;4883713;28;20180;-84
2021/03/29 12:14:16;;;;;;;0.30;0.30;;;17.50;99.90;;;;;;4841225;28;20198;-82
2021/03/29 12:16:42;;;;;;;0.30;0.30;;;17.40;99.90;;;;;;4899080;28;20185;-85
2021/03/29 12:19:05;;;;;;;0.30;0.30;;;17.40;99.90;;;;;;4862131;28;20343;-82
2021/03/29 12:21:31;;;;;;;0.23;0.23;;;17.40;99.90;;;;;;4860460;28;20551;-77
2021/03/29 12:23:58;;;;;;;0.30;0.30;;;17.40;99.90;;;;;;4858136;28;20190;-84
2021/03/29 12:26:22;;;;;;;0.23;0.23;;;17.30;99.90;;;;;;4858525;28;20182;-87
2021/03/29 12:28:46;;;;;;;0.30;0.30;;;17.30;99.90;;;;;;4843195;28;20241;-78
2021/03/29 12:31:09;;;;;;;0.40;0.40;;;17.40;99.90;;;;;;4872979;28;20190;-82
2021/03/29 12:33:31;;;;;;;0.20;0.20;;;17.50;99.90;;;;;;4860137;28;20228;-86